Time;durP1;ratioP1;P1;durP2;ratioP2;P2;SDS_P1;SDS_P2;PMS_P1;PMS_P2;Temp;Humidity;BMP_temperature;BMP_pressure;BME280_temperature;BME280_humidity;BME280_pressure;Samples;Min_cycle;Max_cycle;Signal;HPM_P1;HPM_P2
2022/07/11 00:01:37;;;;;;;3.60;1.70;;;18.10;88.50;;;;;;6206341;28;20056;-81
2022/07/11 00:04:39;;;;;;;3.30;1.67;;;18.10;88.50;;;;;;6205750;28;20051;-82
2022/07/11 00:07:40;;;;;;;2.60;1.52;;;18.10;88.50;;;;;;6205407;28;20050;-82
2022/07/11 00:10:43;;;;;;;2.17;1.25;;;18.20;88.60;;;;;;6204611;28;20058;-81
2022/07/11 00:13:46;;;;;;;4.93;1.30;;;18.30;88.30;;;;;;6204787;28;20565;-82
2022/07/11 00:16:48;;;;;;;3.50;1.55;;;18.20;87.70;;;;;;6206192;28;20050;-81
2022/07/11 00:19:50;;;;;;;1.45;1.08;;;18.30;88.10;;;;;;6206082;28;20050;-81
2022/07/11 00:22:51;;;;;;;3.58;1.63;;;18.30;88.30;;;;;;6207548;28;20480;-82
2022/07/11 00:25:53;;;;;;;2.15;1.40;;;18.30;88.40;;;;;;6209966;28;20073;-82
2022/07/11 00:28:57;;;;;;;1.88;1.30;;;18.40;88.70;;;;;;6208989;28;20097;-82
2022/07/11 00:31:58;;;;;;;1.17;0.98;;;18.30;88.60;;;;;;6209163;28;20103;-81
2022/07/11 00:35:01;;;;;;;2.30;1.30;;;18.40;88.70;;;;;;6207218;28;20062;-81
2022/07/11 00:38:04;;;;;;;3.00;1.52;;;18.50;88.70;;;;;;6207600;28;20065;-80
2022/07/11 00:41:06;;;;;;;2.20;1.45;;;18.50;88.40;;;;;;6206999;28;20053;-80
2022/07/11 00:44:09;;;;;;;2.03;0.93;;;18.50;88.30;;;;;;6205680;28;20520;-81
2022/07/11 00:47:11;;;;;;;1.70;1.23;;;18.50;88.20;;;;;;6205863;28;20042;-80
2022/07/11 00:50:14;;;;;;;1.95;1.40;;;18.50;88.20;;;;;;6208361;28;20140;-81
2022/07/11 00:53:17;;;;;;;2.58;1.30;;;18.50;88.40;;;;;;6210299;28;20039;-80
2022/07/11 00:56:20;;;;;;;1.55;0.95;;;18.50;88.20;;;;;;6208883;28;20052;-80
2022/07/11 00:59:24;;;;;;;5.80;1.48;;;18.50;88.30;;;;;;6209145;28;20045;-80
2022/07/11 01:02:25;;;;;;;1.77;1.15;;;18.50;88.50;;;;;;6209664;28;20047;-80
2022/07/11 01:05:27;;;;;;;3.03;1.00;;;18.50;88.70;;;;;;6206087;28;20046;-81
2022/07/11 01:08:31;;;;;;;4.57;1.50;;;18.50;88.60;;;;;;6206168;28;20053;-81
2022/07/11 01:11:33;;;;;;;1.60;1.20;;;18.50;88.70;;;;;;6207762;28;20079;-82
2022/07/11 01:14:36;;;;;;;2.85;1.65;;;18.60;88.80;;;;;;6209404;28;20089;-81
2022/07/11 01:17:38;;;;;;;2.13;1.83;;;18.60;88.70;;;;;;6203819;28;20125;-81
2022/07/11 01:20:40;;;;;;;2.35;1.23;;;18.60;88.70;;;;;;6203786;28;20452;-79
2022/07/11 01:23:43;;;;;;;1.92;1.20;;;18.60;88.80;;;;;;6203617;28;20050;-80
2022/07/11 01:26:46;;;;;;;2.15;1.30;;;18.60;88.90;;;;;;6203252;28;20066;-80
2022/07/11 01:29:47;;;;;;;1.88;1.13;;;18.70;89.00;;;;;;6203071;28;20046;-82
2022/07/11 01:32:51;;;;;;;3.15;1.42;;;18.70;89.10;;;;;;6202712;28;20045;-80
2022/07/11 01:35:53;;;;;;;3.15;1.48;;;18.70;89.00;;;;;;6202892;28;20046;-81
2022/07/11 01:38:56;;;;;;;4.53;1.40;;;18.70;89.00;;;;;;6201542;28;20061;-80
2022/07/11 01:41:58;;;;;;;1.75;1.10;;;18.70;89.00;;;;;;6202892;28;20054;-80
2022/07/11 01:45:00;;;;;;;3.47;1.23;;;18.70;89.30;;;;;;6202265;28;20053;-81
2022/07/11 01:48:01;;;;;;;3.28;1.20;;;18.80;90.00;;;;;;6202709;28;20053;-81
2022/07/11 01:51:03;;;;;;;5.43;1.17;;;18.80;89.30;;;;;;6202307;28;20061;-81
2022/07/11 01:54:06;;;;;;;6.45;1.40;;;18.80;89.20;;;;;;6202578;28;20500;-81
2022/07/11 01:57:09;;;;;;;1.58;1.15;;;18.90;89.10;;;;;;6202020;28;20053;-81
2022/07/11 02:00:12;;;;;;;2.60;1.27;;;18.90;89.00;;;;;;6201738;28;20058;-81
2022/07/11 02:03:13;;;;;;;3.47;1.17;;;18.90;89.10;;;;;;6202406;28;20042;-81
2022/07/11 02:06:15;;;;;;;1.98;1.17;;;18.90;89.00;;;;;;6203453;28;20060;-81
2022/07/11 02:09:18;;;;;;;3.60;1.38;;;18.90;89.00;;;;;;6202104;28;20043;-81
2022/07/11 02:12:20;;;;;;;2.40;1.23;;;18.90;89.20;;;;;;6202178;28;20423;-81
2022/07/11 02:15:22;;;;;;;2.42;1.35;;;18.90;89.20;;;;;;6201871;28;20049;-81
2022/07/11 02:18:23;;;;;;;4.07;1.58;;;19.00;89.30;;;;;;6202294;28;20064;-81
2022/07/11 02:21:25;;;;;;;3.45;1.85;;;18.90;89.40;;;;;;6201391;28;20655;-81
2022/07/11 02:24:28;;;;;;;4.18;1.60;;;18.90;89.60;;;;;;6202358;28;20043;-81
2022/07/11 02:27:30;;;;;;;1.48;0.95;;;18.90;89.40;;;;;;6202132;28;20047;-81
2022/07/11 02:30:32;;;;;;;2.13;1.40;;;18.90;89.40;;;;;;6202107;28;20690;-81
2022/07/11 02:33:33;;;;;;;2.95;1.38;;;18.90;89.40;;;;;;6201150;28;20042;-81
2022/07/11 02:36:35;;;;;;;2.20;1.27;;;18.90;89.40;;;;;;6201694;28;20050;-81
2022/07/11 02:39:38;;;;;;;3.85;1.42;;;18.90;89.30;;;;;;6200999;28;20053;-81
2022/07/11 02:42:40;;;;;;;2.13;1.45;;;19.00;89.50;;;;;;6202307;28;20057;-81
2022/07/11 02:45:41;;;;;;;4.60;1.48;;;19.00;89.70;;;;;;6201131;28;20046;-81
2022/07/11 02:48:43;;;;;;;1.77;1.20;;;18.90;90.00;;;;;;6200896;28;20053;-81
2022/07/11 02:51:46;;;;;;;3.65;1.58;;;18.90;90.00;;;;;;6201257;28;20544;-80
2022/07/11 02:54:49;;;;;;;1.40;0.88;;;18.90;90.10;;;;;;6201530;28;20176;-80
2022/07/11 02:57:51;;;;;;;1.75;1.30;;;18.90;90.30;;;;;;6201122;28;20042;-81
2022/07/11 03:00:52;;;;;;;2.58;1.20;;;18.80;90.40;;;;;;6201249;28;20504;-81
2022/07/11 03:03:54;;;;;;;4.03;1.50;;;18.80;90.50;;;;;;6202235;28;20050;-81
2022/07/11 03:06:57;;;;;;;2.97;1.30;;;18.70;90.90;;;;;;6201350;28;20057;-81
2022/07/11 03:10:00;;;;;;;2.90;1.48;;;18.70;90.70;;;;;;6200945;28;20061;-81
2022/07/11 03:13:02;;;;;;;2.92;1.23;;;18.70;90.80;;;;;;6200887;28;20049;-81
2022/07/11 03:16:05;;;;;;;3.22;1.35;;;18.60;91.00;;;;;;6200171;28;20234;-81
2022/07/11 03:19:06;;;;;;;3.88;1.67;;;18.60;91.40;;;;;;6200769;28;20073;-81
2022/07/11 03:22:08;;;;;;;2.33;1.10;;;18.50;91.30;;;;;;6201066;28;20522;-81
2022/07/11 03:25:11;;;;;;;2.17;1.20;;;18.40;91.40;;;;;;6200720;28;20054;-81
2022/07/11 03:28:13;;;;;;;4.32;1.42;;;18.40;91.40;;;;;;6200116;28;20504;-81
2022/07/11 03:31:15;;;;;;;2.70;1.40;;;18.40;91.50;;;;;;6200005;28;20050;-80
2022/07/11 03:34:17;;;;;;;2.50;1.33;;;18.40;91.50;;;;;;6200410;28;20396;-81
2022/07/11 03:37:18;;;;;;;2.85;1.23;;;18.40;91.40;;;;;;6200706;28;20049;-81
2022/07/11 03:40:22;;;;;;;3.75;1.52;;;18.40;91.30;;;;;;6200193;28;20173;-82
2022/07/11 03:43:24;;;;;;;6.30;1.80;;;18.40;91.30;;;;;;6199907;28;20061;-80
2022/07/11 03:46:25;;;;;;;3.58;1.30;;;18.40;91.40;;;;;;6200080;28;20147;-80
2022/07/11 03:49:27;;;;;;;1.80;1.30;;;18.40;91.50;;;;;;6199113;28;20054;-80
2022/07/11 03:52:29;;;;;;;4.05;1.50;;;18.40;91.40;;;;;;6200649;28;20424;-81
2022/07/11 03:55:33;;;;;;;1.95;1.42;;;18.40;91.40;;;;;;6200074;28;20042;-81
2022/07/11 03:58:35;;;;;;;2.20;1.77;;;18.40;91.50;;;;;;6200008;28;20050;-81
2022/07/11 04:01:37;;;;;;;2.65;1.23;;;18.40;91.50;;;;;;6199781;28;20054;-81
2022/07/11 04:04:38;;;;;;;2.72;1.45;;;18.40;91.60;;;;;;6199833;28;20053;-81
2022/07/11 04:07:41;;;;;;;3.13;1.83;;;18.40;91.60;;;;;;6198752;28;20050;-81
2022/07/11 04:10:45;;;;;;;2.28;1.42;;;18.40;91.60;;;;;;6199817;28;20385;-81
2022/07/11 04:13:47;;;;;;;4.38;1.27;;;18.40;91.60;;;;;;6200166;28;20043;-81
2022/07/11 04:16:48;;;;;;;2.40;1.95;;;18.50;91.60;;;;;;6200173;28;20062;-81
2022/07/11 04:19:50;;;;;;;2.33;1.27;;;18.50;91.60;;;;;;6199365;28;20046;-80
2022/07/11 04:22:52;;;;;;;2.70;1.30;;;18.50;91.70;;;;;;6199309;28;20580;-81
2022/07/11 04:25:55;;;;;;;2.28;1.50;;;18.50;91.70;;;;;;6199883;28;20056;-81
2022/07/11 04:28:57;;;;;;;3.30;1.50;;;18.50;91.70;;;;;;6198754;28;20058;-80
2022/07/11 04:31:58;;;;;;;1.73;1.38;;;18.60;91.70;;;;;;6201414;28;20057;-80
2022/07/11 04:35:00;;;;;;;2.30;1.40;;;18.60;91.70;;;;;;6200764;28;20047;-81
2022/07/11 04:38:02;;;;;;;2.50;1.88;;;18.60;91.70;;;;;;6199988;28;20061;-80
2022/07/11 04:41:06;;;;;;;5.72;1.95;;;18.70;91.70;;;;;;6200281;28;20121;-81
2022/07/11 04:44:08;;;;;;;1.90;1.40;;;18.70;91.60;;;;;;6198510;28;20077;-80
2022/07/11 04:47:10;;;;;;;3.63;1.75;;;18.80;91.50;;;;;;6198525;28;20046;-80
2022/07/11 04:50:12;;;;;;;4.85;1.30;;;18.90;91.50;;;;;;6199364;28;20420;-81
2022/07/11 04:53:14;;;;;;;3.40;1.88;;;19.10;91.20;;;;;;6199178;28;20038;-81
2022/07/11 04:56:17;;;;;;;3.50;1.60;;;19.30;91.00;;;;;;6199733;28;20448;-81
2022/07/11 04:59:19;;;;;;;2.22;1.02;;;19.60;90.80;;;;;;6198269;28;20050;-80
2022/07/11 05:02:21;;;;;;;2.70;1.40;;;19.80;90.40;;;;;;6198648;28;20504;-81
2022/07/11 05:05:23;;;;;;;4.28;1.60;;;20.10;90.00;;;;;;6198042;28;20061;-81
2022/07/11 05:08:25;;;;;;;1.50;1.20;;;20.30;89.20;;;;;;6198430;28;20194;-81
2022/07/11 05:11:28;;;;;;;4.35;1.20;;;20.50;88.20;;;;;;6203416;28;20050;-81
2022/07/11 05:14:30;;;;;;;6.82;1.67;;;20.60;87.50;;;;;;6202351;28;20169;-82
2022/07/11 05:17:32;;;;;;;4.88;1.17;;;20.60;87.00;;;;;;6201672;28;20046;-81
2022/07/11 05:20:33;;;;;;;4.22;1.38;;;20.90;86.70;;;;;;6201810;28;20424;-81
2022/07/11 05:23:35;;;;;;;3.33;1.75;;;21.10;85.60;;;;;;6201879;28;20069;-81
2022/07/11 05:26:38;;;;;;;1.90;1.30;;;21.10;85.10;;;;;;6228444;23;20062;-83
2022/07/11 05:29:40;;;;;;;2.85;1.73;;;21.20;84.00;;;;;;6232825;28;20046;-84
2022/07/11 05:32:42;;;;;;;3.95;1.63;;;21.30;83.60;;;;;;6232521;28;20053;-84
2022/07/11 05:35:43;;;;;;;2.65;1.63;;;21.30;82.80;;;;;;6231752;28;20076;-83
2022/07/11 05:38:45;;;;;;;5.25;1.73;;;21.30;82.40;;;;;;6208591;28;20058;-84
2022/07/11 05:41:51;;;;;;;1.88;1.58;;;21.40;82.00;;;;;;6207462;28;20046;-84
2022/07/11 05:44:52;;;;;;;2.20;1.17;;;21.40;81.40;;;;;;6207467;28;20050;-84
2022/07/11 05:47:54;;;;;;;2.22;1.30;;;21.60;80.90;;;;;;6207187;28;20053;-84
2022/07/11 05:50:56;;;;;;;4.55;1.27;;;21.80;80.30;;;;;;6206393;28;20423;-83
2022/07/11 05:53:57;;;;;;;3.58;1.48;;;22.00;79.20;;;;;;6207949;28;20050;-83
2022/07/11 05:57:02;;;;;;;1.73;1.00;;;22.30;78.30;;;;;;6206052;28;20042;-83
2022/07/11 06:00:04;;;;;;;2.25;1.10;;;22.60;77.60;;;;;;6206750;28;20531;-84
2022/07/11 06:03:06;;;;;;;3.42;1.55;;;22.80;76.80;;;;;;6205907;28;20964;-83
2022/07/11 06:06:07;;;;;;;3.28;2.08;;;23.20;75.60;;;;;;6206113;28;20397;-84
2022/07/11 06:09:09;;;;;;;2.65;1.20;;;23.70;73.80;;;;;;6205072;28;20046;-83
2022/07/11 06:12:12;;;;;;;19.00;1.90;;;23.80;72.20;;;;;;6204149;28;20512;-82
2022/07/11 06:15:14;;;;;;;2.58;1.50;;;23.80;71.00;;;;;;6205161;28;20046;-82
2022/07/11 06:18:16;;;;;;;5.07;1.50;;;23.90;70.40;;;;;;6203806;28;20065;-83
2022/07/11 06:21:19;;;;;;;2.78;1.48;;;24.10;69.70;;;;;;6202368;28;20392;-83
2022/07/11 06:24:20;;;;;;;3.40;1.52;;;24.50;68.70;;;;;;6202794;28;20042;-83
2022/07/11 06:27:24;;;;;;;2.33;1.40;;;25.20;67.30;;;;;;6203068;28;20049;-83
2022/07/11 06:30:26;;;;;;;5.60;1.80;;;26.60;63.40;;;;;;6215671;28;20048;-82
2022/07/11 06:33:28;;;;;;;2.95;1.52;;;28.10;60.00;;;;;;6219680;28;20518;-82
2022/07/11 06:36:29;;;;;;;3.33;1.17;;;30.00;55.00;;;;;;6202406;28;20042;-84
2022/07/11 06:39:31;;;;;;;2.33;0.90;;;31.40;50.30;;;;;;6201100;28;20046;-85
2022/07/11 06:42:34;;;;;;;5.68;1.05;;;33.70;46.10;;;;;;6200155;28;20488;-82
2022/07/11 06:45:37;;;;;;;7.45;1.15;;;34.90;42.20;;;;;;6200369;28;20120;-82
2022/07/11 06:48:38;;;;;;;2.53;1.35;;;35.80;40.30;;;;;;6202116;28;20042;-84
2022/07/11 06:51:40;;;;;;;5.28;1.42;;;35.10;39.60;;;;;;6203092;28;20050;-83
2022/07/11 06:54:42;;;;;;;2.25;1.20;;;33.70;41.00;;;;;;6203946;28;20062;-84
2022/07/11 06:57:45;;;;;;;3.75;0.88;;;32.60;42.40;;;;;;6204224;28;20110;-82
2022/07/11 07:00:47;;;;;;;3.40;1.25;;;32.30;43.30;;;;;;6202786;28;20061;-82
2022/07/11 07:03:49;;;;;;;3.25;1.10;;;32.70;42.80;;;;;;6200118;28;20038;-82
2022/07/11 07:06:50;;;;;;;3.40;0.80;;;33.20;42.40;;;;;;6199286;28;20057;-81
2022/07/11 07:09:52;;;;;;;3.15;0.60;;;34.70;40.70;;;;;;6199616;28;20050;-83
2022/07/11 07:12:55;;;;;;;1.55;0.65;;;36.10;38.60;;;;;;6199439;28;20054;-83
2022/07/11 07:15:57;;;;;;;2.53;0.90;;;36.80;37.40;;;;;;6199566;28;20136;-83
2022/07/11 07:18:59;;;;;;;5.78;1.00;;;37.60;36.10;;;;;;6199504;28;20053;-83
2022/07/11 07:22:01;;;;;;;3.58;0.80;;;38.20;35.80;;;;;;6200232;28;20423;-85
2022/07/11 07:25:03;;;;;;;2.60;0.65;;;38.40;35.10;;;;;;6200133;28;20046;-84
2022/07/11 07:28:07;;;;;;;3.65;1.13;;;38.20;34.80;;;;;;6201079;28;20484;-85
2022/07/11 07:31:11;;;;;;;2.25;1.20;;;38.10;34.50;;;;;;6170744;28;20088;-84
2022/07/11 07:34:13;;;;;;;8.85;1.27;;;38.20;34.50;;;;;;6217932;28;20054;-84
2022/07/11 07:37:15;;;;;;;1.60;0.95;;;38.70;34.10;;;;;;6226237;28;20126;-85
2022/07/11 07:40:17;;;;;;;3.63;0.90;;;39.40;33.30;;;;;;6227292;28;20057;-85
2022/07/11 07:43:22;;;;;;;3.38;1.00;;;39.40;33.00;;;;;;6228298;28;20049;-85
2022/07/11 07:46:24;;;;;;;1.77;0.80;;;39.90;32.30;;;;;;6208680;28;20046;-85
2022/07/11 07:49:27;;;;;;;4.25;1.02;;;40.70;31.80;;;;;;6202087;28;20058;-85
2022/07/11 07:52:30;;;;;;;5.57;1.17;;;41.50;31.10;;;;;;6195903;28;20121;-87
2022/07/11 07:55:32;;;;;;;0.90;0.55;;;42.30;30.40;;;;;;6196200;28;20046;-84
2022/07/11 07:58:35;;;;;;;2.67;1.08;;;42.70;30.00;;;;;;6197838;28;20064;-84
2022/07/11 08:01:37;;;;;;;2.80;0.90;;;42.70;29.70;;;;;;6200217;28;20053;-83
2022/07/11 08:04:39;;;;;;;5.20;1.23;;;40.20;30.30;;;;;;6218330;28;20056;-83
2022/07/11 08:07:40;;;;;;;4.65;1.20;;;37.00;33.70;;;;;;6228322;28;20466;-83
2022/07/11 08:10:42;;;;;;;5.43;0.95;;;34.80;35.80;;;;;;6230730;28;20050;-86
2022/07/11 08:13:54;;;;;;;3.95;1.13;;;32.90;38.70;;;;;;6230196;28;20076;-85
2022/07/11 08:16:56;;;;;;;2.03;1.10;;;31.80;40.60;;;;;;6232922;28;20042;-85
2022/07/11 08:19:58;;;;;;;1.20;0.80;;;31.30;41.70;;;;;;6237713;28;20139;-85
2022/07/11 08:23:01;;;;;;;2.72;1.45;;;30.60;42.70;;;;;;6224519;28;20060;-85
2022/07/11 08:26:03;;;;;;;4.32;1.45;;;30.10;43.30;;;;;;6224789;28;20042;-86
2022/07/11 08:29:06;;;;;;;3.83;2.00;;;29.50;44.50;;;;;;6222772;28;20050;-86
2022/07/11 08:32:08;;;;;;;3.40;0.77;;;29.10;45.40;;;;;;6214348;28;20049;-86
2022/07/11 08:35:11;;;;;;;5.75;1.25;;;29.20;45.80;;;;;;6205957;28;20046;-85
2022/07/11 08:38:13;;;;;;;3.20;1.30;;;29.60;45.70;;;;;;6199370;28;20062;-86
2022/07/11 08:41:18;;;;;;;2.25;0.93;;;29.90;44.80;;;;;;6197545;28;20053;-84
2022/07/11 08:44:21;;;;;;;9.27;0.95;;;30.00;44.50;;;;;;6201798;28;20117;-84
2022/07/11 08:47:23;;;;;;;4.15;1.45;;;29.90;44.50;;;;;;6204105;28;20048;-84
2022/07/11 08:50:28;;;;;;;6.28;1.33;;;29.70;44.70;;;;;;6212037;28;20060;-84
2022/07/11 08:53:33;;;;;;;2.92;1.23;;;29.30;45.10;;;;;;6209805;28;20526;-84
2022/07/11 08:56:36;;;;;;;3.55;1.08;;;28.80;45.50;;;;;;6210601;28;20124;-83
2022/07/11 08:59:41;;;;;;;3.15;1.10;;;28.50;46.30;;;;;;6210153;28;20054;-84
2022/07/11 09:02:44;;;;;;;4.78;1.50;;;28.40;46.70;;;;;;6215267;28;20496;-82
2022/07/11 09:05:47;;;;;;;3.30;0.98;;;28.50;46.80;;;;;;6225612;28;20073;-84
2022/07/11 09:08:48;;;;;;;7.43;1.40;;;28.60;46.50;;;;;;6229251;28;20072;-84
2022/07/11 09:11:52;;;;;;;5.60;1.00;;;28.20;47.30;;;;;;6230044;28;20478;-84
2022/07/11 09:14:56;;;;;;;3.40;1.65;;;27.90;48.10;;;;;;6231615;28;20050;-84
2022/07/11 09:17:57;;;;;;;7.25;1.00;;;27.60;47.80;;;;;;6232801;28;20068;-85
2022/07/11 09:27:45;;;;;;;4.60;1.10;;;28.50;48.70;;;;;;6231273;28;20045;-85
2022/07/11 09:30:48;;;;;;;5.67;1.10;;;29.10;47.70;;;;;;6230869;28;20423;-83
2022/07/11 09:34:01;;;;;;;3.78;1.33;;;29.60;46.80;;;;;;6232841;28;20081;-84
2022/07/11 09:37:03;;;;;;;4.38;1.05;;;29.90;46.10;;;;;;6230841;28;20049;-84
2022/07/11 09:40:12;;;;;;;4.20;0.98;;;30.00;45.60;;;;;;6231723;28;20052;-84
2022/07/11 09:43:14;;;;;;;1.50;1.00;;;29.90;45.50;;;;;;6229654;28;20415;-83
2022/07/11 09:46:24;;;;;;;1.45;1.35;;;29.90;45.60;;;;;;6230875;28;20495;-84
2022/07/11 09:49:34;;;;;;;1.58;1.05;;;29.90;45.20;;;;;;6231271;28;20050;-83
2022/07/11 09:52:36;;;;;;;3.03;0.82;;;30.00;45.10;;;;;;6233789;28;20054;-83
2022/07/11 09:55:40;;;;;;;3.50;0.90;;;29.80;45.10;;;;;;6232680;28;20050;-83
2022/07/11 09:58:41;;;;;;;1.58;1.00;;;29.60;45.20;;;;;;6233533;28;20460;-84
2022/07/11 10:01:45;;;;;;;7.07;1.05;;;29.50;45.90;;;;;;6232924;28;20050;-85
2022/07/11 10:04:48;;;;;;;1.90;0.85;;;29.30;45.60;;;;;;6231984;28;20056;-85
2022/07/11 10:07:50;;;;;;;2.25;0.85;;;29.00;46.00;;;;;;6232748;28;20049;-83
2022/07/11 10:10:51;;;;;;;2.97;0.90;;;28.70;46.50;;;;;;6233757;28;20053;-85
2022/07/11 10:13:54;;;;;;;5.47;1.00;;;28.70;46.90;;;;;;6232834;28;20060;-84
2022/07/11 10:17:02;;;;;;;5.20;0.82;;;29.00;46.70;;;;;;6231572;28;20052;-85
2022/07/11 10:20:11;;;;;;;3.35;1.13;;;29.10;46.40;;;;;;6231820;28;20046;-84
2022/07/11 10:23:32;;;;;;;6.30;1.23;;;28.90;46.40;;;;;;6231659;28;20049;-84
2022/07/11 10:26:41;;;;;;;7.32;1.00;;;28.80;47.40;;;;;;6232235;28;20113;-85
2022/07/11 10:29:50;;;;;;;2.33;0.93;;;29.00;47.20;;;;;;6231326;28;20046;-84
2022/07/11 10:33:05;;;;;;;2.13;0.70;;;29.20;46.80;;;;;;6232805;28;20052;-84
2022/07/11 10:36:07;;;;;;;4.50;1.20;;;29.40;46.20;;;;;;6232156;28;20061;-85
2022/07/11 10:39:21;;;;;;;1.17;0.55;;;29.90;45.50;;;;;;6232044;28;20146;-84
2022/07/11 10:42:24;;;;;;;1.63;0.90;;;30.00;44.50;;;;;;6232969;28;20064;-84
2022/07/11 10:45:25;;;;;;;1.23;0.73;;;29.90;44.00;;;;;;6232863;28;20495;-84
2022/07/11 10:48:31;;;;;;;1.33;0.70;;;29.40;44.20;;;;;;6231749;28;20061;-84
2022/07/11 10:51:42;;;;;;;2.60;1.00;;;28.60;45.30;;;;;;6231619;28;20046;-85
2022/07/11 10:54:59;;;;;;;6.60;0.93;;;28.30;46.20;;;;;;6231909;28;20052;-85
2022/07/11 10:58:08;;;;;;;4.10;1.05;;;28.60;46.40;;;;;;6232272;28;20050;-85
2022/07/11 11:01:11;;;;;;;1.20;0.70;;;29.10;46.50;;;;;;6232457;28;20052;-83
2022/07/11 11:04:49;;;;;;;3.58;0.57;;;29.50;45.70;;;;;;6233309;28;20049;-85
2022/07/11 11:07:51;;;;;;;1.38;0.50;;;29.80;44.80;;;;;;6231216;28;20117;-85
2022/07/11 11:10:53;;;;;;;2.90;0.70;;;30.00;44.50;;;;;;6233394;28;20050;-85
2022/07/11 11:14:28;;;;;;;2.40;0.80;;;29.90;44.10;;;;;;6233364;28;20073;-83
2022/07/11 11:17:37;;;;;;;1.75;0.60;;;29.80;44.10;;;;;;6237714;28;20045;-84
2022/07/11 11:20:40;;;;;;;3.45;0.80;;;29.60;44.00;;;;;;6217141;28;20065;-82
2022/07/11 11:23:44;;;;;;;2.50;1.27;;;29.10;45.10;;;;;;6212373;28;20050;-86
2022/07/11 11:26:48;;;;;;;3.22;0.50;;;29.10;46.00;;;;;;6228811;28;20415;-83
2022/07/11 11:29:52;;;;;;;1.42;0.70;;;29.00;45.50;;;;;;6231588;28;20053;-84
2022/07/11 11:32:53;;;;;;;2.90;0.60;;;29.30;45.30;;;;;;6203527;28;20060;-84
2022/07/11 11:36:01;;;;;;;3.05;0.68;;;30.00;44.60;;;;;;6198844;28;20061;-83
2022/07/11 11:39:05;;;;;;;2.88;0.70;;;30.40;43.40;;;;;;6198464;28;20046;-85
2022/07/11 11:42:16;;;;;;;1.10;0.47;;;30.60;42.90;;;;;;6199854;28;20046;-84
2022/07/11 11:45:20;;;;;;;3.10;0.63;;;31.10;42.50;;;;;;6199892;28;20529;-85
2022/07/11 11:48:29;;;;;;;1.55;0.63;;;31.30;42.50;;;;;;6199258;28;20457;-84
2022/07/11 11:51:33;;;;;;;0.63;0.43;;;31.10;42.30;;;;;;6199775;28;20050;-83
2022/07/11 11:54:35;;;;;;;2.33;0.65;;;30.60;42.30;;;;;;6208496;28;20054;-85
2022/07/11 11:57:37;;;;;;;2.92;0.73;;;30.10;43.50;;;;;;6198429;28;20046;-84
2022/07/11 12:00:39;;;;;;;5.47;0.70;;;30.40;43.90;;;;;;6199625;28;20046;-84
2022/07/11 12:03:51;;;;;;;1.85;0.50;;;30.50;43.80;;;;;;6199715;28;20077;-83
2022/07/11 12:06:54;;;;;;;2.22;0.50;;;30.70;43.50;;;;;;6202909;28;20061;-85
2022/07/11 12:09:58;;;;;;;1.65;0.47;;;30.90;43.60;;;;;;6200149;28;20061;-84
2022/07/11 12:13:00;;;;;;;2.90;0.80;;;31.10;42.50;;;;;;6199499;28;20070;-84
2022/07/11 12:19:23;;;;;;;1.35;0.57;;;30.70;43.20;;;;;;6208242;28;20038;-83
2022/07/11 12:22:27;;;;;;;2.05;0.50;;;30.80;43.40;;;;;;6211778;28;20428;-83
2022/07/11 12:25:29;;;;;;;2.47;0.52;;;31.50;42.70;;;;;;6203654;28;20105;-83
2022/07/11 12:28:32;;;;;;;2.90;0.50;;;32.20;41.60;;;;;;6202007;28;20047;-85
2022/07/11 12:31:48;;;;;;;1.85;0.40;;;32.80;41.30;;;;;;6203982;28;20501;-84
2022/07/11 12:34:51;;;;;;;3.60;0.43;;;33.30;40.30;;;;;;6203283;28;20531;-83
2022/07/11 12:37:55;;;;;;;3.30;0.60;;;33.30;40.00;;;;;;6203294;28;20050;-84
2022/07/11 12:41:01;;;;;;;1.73;0.50;;;33.00;39.50;;;;;;6202319;28;20050;-84
2022/07/11 12:47:25;;;;;;;6.35;0.50;;;31.40;41.90;;;;;;6203112;28;20038;-84
2022/07/11 12:50:29;;;;;;;0.88;0.50;;;31.10;42.10;;;;;;6201702;28;20505;-83
2022/07/11 12:53:32;;;;;;;1.20;0.70;;;30.40;43.30;;;;;;6212131;28;20056;-84
2022/07/11 12:56:34;;;;;;;0.88;0.40;;;30.00;44.60;;;;;;6225819;28;20491;-84
2022/07/11 12:59:36;;;;;;;2.10;0.40;;;30.60;44.30;;;;;;6225577;28;20046;-85
2022/07/11 13:02:38;;;;;;;4.10;0.73;;;30.90;42.90;;;;;;6226297;28;20050;-83
2022/07/11 13:05:50;;;;;;;2.45;0.50;;;30.70;43.60;;;;;;6225200;28;20050;-84
2022/07/11 13:08:52;;;;;;;0.63;0.38;;;30.50;43.30;;;;;;6226978;28;20046;-83
2022/07/11 13:11:56;;;;;;;0.60;0.22;;;30.00;43.50;;;;;;6227100;28;20073;-84
2022/07/11 13:15:12;;;;;;;2.88;0.55;;;30.00;44.80;;;;;;6227889;28;20050;-84
2022/07/11 13:18:14;;;;;;;0.95;0.40;;;30.80;43.80;;;;;;6227585;28;20054;-84
2022/07/11 13:21:16;;;;;;;1.45;0.60;;;31.30;42.50;;;;;;6220549;28;20180;-85
2022/07/11 13:24:19;;;;;;;0.40;0.30;;;31.50;42.70;;;;;;6208760;28;20057;-85
2022/07/11 13:27:21;;;;;;;1.25;0.40;;;31.80;42.60;;;;;;6200375;28;20048;-85
2022/07/11 13:30:27;;;;;;;6.22;0.50;;;31.90;42.00;;;;;;6201138;28;20705;-83
2022/07/11 13:33:29;;;;;;;2.92;0.30;;;31.70;41.40;;;;;;6200930;28;20094;-84
2022/07/11 13:36:31;;;;;;;0.50;0.20;;;31.30;41.70;;;;;;6201180;28;20530;-82
2022/07/11 13:39:34;;;;;;;6.63;0.47;;;31.10;42.10;;;;;;6200724;28;20051;-84
2022/07/11 13:42:36;;;;;;;0.60;0.30;;;31.00;42.60;;;;;;6202295;28;20104;-82
2022/07/11 13:45:39;;;;;;;0.32;0.28;;;31.10;42.70;;;;;;6201365;28;20098;-85
2022/07/11 13:48:41;;;;;;;4.53;0.60;;;31.20;42.50;;;;;;6203058;28;20054;-85
2022/07/11 13:51:43;;;;;;;1.60;0.50;;;31.40;42.40;;;;;;6205160;28;20046;-84
2022/07/11 13:54:46;;;;;;;3.38;0.30;;;31.80;42.00;;;;;;6218414;28;20480;-83
2022/07/11 13:57:52;;;;;;;0.70;0.20;;;32.50;40.80;;;;;;6224820;28;20046;-83
2022/07/11 14:00:54;;;;;;;10.32;1.35;;;32.50;40.50;;;;;;6225357;28;20132;-82
2022/07/11 14:03:57;;;;;;;9.18;1.35;;;31.90;41.00;;;;;;6226923;28;20045;-85
2022/07/11 14:06:58;;;;;;;3.25;0.40;;;31.60;41.40;;;;;;6226577;28;20192;-84
2022/07/11 14:10:02;;;;;;;0.82;0.32;;;31.60;41.40;;;;;;6227715;28;20451;-83
2022/07/11 14:13:04;;;;;;;3.05;0.20;;;31.90;40.80;;;;;;6225067;28;20069;-83
2022/07/11 14:16:07;;;;;;;0.95;0.30;;;32.10;41.00;;;;;;6224676;28;20512;-85
2022/07/11 14:19:10;;;;;;;2.15;0.30;;;32.50;40.70;;;;;;6226815;28;20061;-81
2022/07/11 14:22:12;;;;;;;0.20;0.20;;;32.80;39.90;;;;;;6223767;28;20046;-82
2022/07/11 14:25:15;;;;;;;0.50;0.22;;;33.00;39.90;;;;;;6205208;28;20046;-81
2022/07/11 14:28:17;;;;;;;3.05;0.50;;;33.30;39.30;;;;;;6203508;28;20431;-84
2022/07/11 14:31:22;;;;;;;1.20;0.40;;;33.60;39.00;;;;;;6206041;28;20058;-82
2022/07/11 14:34:24;;;;;;;1.10;0.40;;;33.90;38.40;;;;;;6206874;28;20058;-83
2022/07/11 14:37:26;;;;;;;1.88;0.50;;;34.30;37.80;;;;;;6205261;28;20181;-83
2022/07/11 14:40:29;;;;;;;1.30;0.52;;;34.50;37.50;;;;;;6206107;28;20053;-82
2022/07/11 14:43:31;;;;;;;6.07;0.30;;;34.50;37.10;;;;;;6206230;28;20050;-82
2022/07/11 14:46:33;;;;;;;1.23;0.40;;;33.70;37.10;;;;;;6207799;28;20137;-82
2022/07/11 14:49:35;;;;;;;1.58;0.82;;;33.20;38.00;;;;;;6208926;28;20050;-83
2022/07/11 14:52:37;;;;;;;0.60;0.47;;;32.60;38.80;;;;;;6217872;28;20077;-84
2022/07/11 14:55:40;;;;;;;1.35;0.60;;;32.30;39.70;;;;;;6234431;28;20046;-83
2022/07/11 14:58:42;;;;;;;2.20;0.65;;;32.60;39.50;;;;;;6236630;28;20137;-83
2022/07/11 15:01:43;;;;;;;1.67;0.50;;;32.90;39.50;;;;;;6237029;28;20054;-84
2022/07/11 15:04:53;;;;;;;1.60;0.73;;;33.30;39.20;;;;;;6294308;27;20451;-83
2022/07/11 15:14:34;;;;;;;1.42;0.47;;;32.70;39.40;;;;;;6276404;28;20041;-83
2022/07/11 15:17:35;;;;;;;1.33;0.60;;;32.10;39.90;;;;;;6271992;28;20051;-82
2022/07/11 15:20:38;;;;;;;1.33;0.73;;;31.60;40.80;;;;;;6276068;28;20049;-82
2022/07/11 15:23:40;;;;;;;3.17;0.70;;;31.30;41.30;;;;;;6274830;28;20056;-83
2022/07/11 15:26:42;;;;;;;1.45;0.50;;;30.90;41.80;;;;;;6274614;28;22699;-83
2022/07/11 15:29:44;;;;;;;1.45;0.65;;;30.60;42.80;;;;;;6275690;28;20053;-84
2022/07/11 15:32:47;;;;;;;2.40;0.80;;;30.60;43.10;;;;;;6276562;28;20124;-85
2022/07/11 15:35:52;;;;;;;1.77;0.80;;;30.40;43.50;;;;;;6270696;28;20052;-83
2022/07/11 15:38:56;;;;;;;5.95;1.05;;;30.30;43.80;;;;;;6272721;28;20114;-83
2022/07/11 15:41:57;;;;;;;3.30;1.48;;;30.10;44.10;;;;;;6271663;28;20056;-84
2022/07/11 15:44:59;;;;;;;3.20;1.13;;;29.90;44.20;;;;;;6272915;28;20088;-83
2022/07/11 15:48:01;;;;;;;2.97;0.90;;;29.40;44.80;;;;;;6274315;28;20041;-82
2022/07/11 15:51:05;;;;;;;1.38;0.60;;;29.30;44.70;;;;;;6274585;28;20055;-83
2022/07/11 15:54:06;;;;;;;1.00;0.55;;;29.20;44.70;;;;;;6275869;28;20067;-83
2022/07/11 15:57:08;;;;;;;1.17;0.80;;;29.00;45.20;;;;;;6273034;28;20049;-84
2022/07/11 16:00:12;;;;;;;8.73;1.13;;;28.80;44.80;;;;;;6269492;28;20063;-82
2022/07/11 16:03:13;;;;;;;3.40;1.23;;;28.60;45.50;;;;;;6269385;28;20051;-85
2022/07/11 16:06:17;;;;;;;1.63;1.00;;;28.50;46.30;;;;;;6270355;28;20533;-82
2022/07/11 16:09:18;;;;;;;2.25;0.98;;;28.30;46.50;;;;;;6269460;28;20045;-82
2022/07/11 16:12:20;;;;;;;3.70;0.90;;;28.30;46.50;;;;;;6269669;28;20383;-83
2022/07/11 16:15:22;;;;;;;3.60;1.27;;;28.10;47.00;;;;;;6259542;28;20048;-83